Time;durP1;ratioP1;P1;durP2;ratioP2;P2;SDS_P1;SDS_P2;PMS_P1;PMS_P2;Temp;Humidity;BMP_temperature;BMP_pressure;BME280_temperature;BME280_humidity;BME280_pressure;Samples;Min_cycle;Max_cycle;Signal;HPM_P1;HPM_P2
2023/10/19 00:00:21;;;;;;;1999.90;999.90;;;;;;;;;;5057138;28;20048;-86
2023/10/19 00:02:51;;;;;;;1999.90;999.90;;;;;;;;;;5056389;28;20503;-85
2023/10/19 00:05:20;;;;;;;1999.90;999.90;;;;;;;;;;5054165;28;20057;-85
2023/10/19 00:07:46;;;;;;;1999.90;999.90;;;;;;;;;;5059854;28;20053;-86
2023/10/19 00:10:15;;;;;;;1999.90;999.90;;;;;;;;;;5057249;28;20420;-86
2023/10/19 00:12:41;;;;;;;1999.90;999.90;;;;;;;;;;5055576;28;20041;-86
2023/10/19 00:15:10;;;;;;;1999.90;999.90;;;;;;;;;;5059290;28;20045;-86
2023/10/19 00:17:38;;;;;;;1999.90;999.90;;;;;;;;;;5060991;28;20366;-85
2023/10/19 00:20:35;;;;;;;1999.90;999.90;;;;;;;;;;5053681;28;20048;-86
2023/10/19 00:22:58;;;;;;;1999.90;999.90;;;;;;;;;;5057756;28;20562;-86
2023/10/19 00:25:25;;;;;;;1999.90;999.90;;;;;;;;;;5056292;28;20044;-86
2023/10/19 00:27:52;;;;;;;1999.90;999.90;;;;;;;;;;5058312;28;20053;-85
2023/10/19 00:30:23;;;;;;;1999.90;999.90;;;;;;;;;;5059577;28;20433;-86
2023/10/19 00:32:52;;;;;;;1999.90;999.90;;;;;;;;;;5057600;28;20060;-86
2023/10/19 00:35:34;;;;;;;1999.90;999.90;;;;;;;;;;5055910;28;20045;-86
2023/10/19 00:38:27;;;;;;;1999.90;999.90;;;;;;;;;;5057041;28;20045;-86
2023/10/19 00:40:58;;;;;;;1999.90;999.90;;;;;;;;;;5058708;28;20460;-86
2023/10/19 00:43:32;;;;;;;1999.90;999.90;;;;;;;;;;5058629;28;20044;-86
2023/10/19 00:46:01;;;;;;;1999.90;999.90;;;;;;;;;;5055684;28;20519;-86
2023/10/19 00:48:28;;;;;;;1999.90;999.90;;;;;;;;;;5059811;28;20048;-85
2023/10/19 00:51:06;;;;;;;1999.90;999.90;;;;;;;;;;5061254;28;20131;-85
2023/10/19 00:53:35;;;;;;;1999.90;999.90;;;;;;;;;;5057289;28;20059;-85
2023/10/19 00:56:05;;;;;;;1999.90;999.90;;;;;;;;;;5056218;28;20052;-86
2023/10/19 00:58:35;;;;;;;1999.90;999.90;;;;;;;;;;5058952;28;20159;-86
2023/10/19 01:01:05;;;;;;;1999.90;999.90;;;;;;;;;;5056418;28;20634;-86
2023/10/19 01:03:36;;;;;;;1999.90;999.90;;;;;;;;;;5058575;28;20064;-86
2023/10/19 01:06:09;;;;;;;1999.90;999.90;;;;;;;;;;5055786;28;20114;-86
2023/10/19 01:08:42;;;;;;;1999.90;999.90;;;;;;;;;;5054045;28;20507;-85
2023/10/19 01:11:11;;;;;;;1999.90;999.90;;;;;;;;;;5057212;28;20580;-85
2023/10/19 01:13:37;;;;;;;1999.90;999.90;;;;;;;;;;5056273;28;20045;-85
2023/10/19 01:16:05;;;;;;;1999.90;999.90;;;;;;;;;;5058094;28;20048;-85
2023/10/19 01:18:32;;;;;;;1999.90;999.90;;;;;;;;;;5055840;28;20460;-85
2023/10/19 01:21:02;;;;;;;1999.90;999.90;;;;;;;;;;5052080;28;20051;-85
2023/10/19 01:23:31;;;;;;;1999.90;999.90;;;;;;;;;;5054388;28;20496;-85
2023/10/19 01:26:02;;;;;;;1999.90;999.90;;;;;;;;;;5056423;28;20045;-85
2023/10/19 01:28:42;;;;;;;1999.90;999.90;;;;;;;;;;5058029;28;20044;-85
2023/10/19 01:31:13;;;;;;;1999.90;999.90;;;;;;;;;;5057153;28;20044;-85
2023/10/19 01:33:41;;;;;;;1999.90;999.90;;;;;;;;;;5053501;28;20049;-86
2023/10/19 01:36:11;;;;;;;1999.90;999.90;;;;;;;;;;5057881;28;20550;-86
2023/10/19 01:38:38;;;;;;;1999.90;999.90;;;;;;;;;;5057980;28;20049;-85
2023/10/19 01:41:08;;;;;;;1999.90;999.90;;;;;;;;;;5058812;28;20088;-86
2023/10/19 01:43:34;;;;;;;1999.90;999.90;;;;;;;;;;5057536;28;20043;-87
2023/10/19 01:46:04;;;;;;;1999.90;999.90;;;;;;;;;;5057684;28;20421;-86
2023/10/19 01:48:33;;;;;;;1999.90;999.90;;;;;;;;;;5061428;28;20049;-86
2023/10/19 01:50:59;;;;;;;1999.90;999.90;;;;;;;;;;5054630;28;20052;-86
2023/10/19 01:53:26;;;;;;;1999.90;999.90;;;;;;;;;;5055899;28;20048;-86
2023/10/19 01:55:57;;;;;;;1999.90;999.90;;;;;;;;;;5058203;28;20048;-85
2023/10/19 01:58:25;;;;;;;1999.90;999.90;;;;;;;;;;5061242;28;20053;-87
2023/10/19 02:00:50;;;;;;;1999.90;999.90;;;;;;;;;;5060347;28;20048;-86
2023/10/19 02:03:17;;;;;;;1999.90;999.90;;;;;;;;;;5058592;28;20052;-86
2023/10/19 02:05:43;;;;;;;1999.90;999.90;;;;;;;;;;5058476;28;20060;-86
2023/10/19 02:08:10;;;;;;;1999.90;999.90;;;;;;;;;;5059249;28;20548;-85
2023/10/19 02:10:37;;;;;;;1999.90;999.90;;;;;;;;;;5056562;28;20168;-86
2023/10/19 02:13:06;;;;;;;1999.90;999.90;;;;;;;;;;5060619;28;20051;-86
2023/10/19 02:15:34;;;;;;;1999.90;999.90;;;;;;;;;;5060178;28;20128;-87
2023/10/19 02:18:01;;;;;;;1999.90;999.90;;;;;;;;;;5061530;28;20051;-87
2023/10/19 02:20:28;;;;;;;1999.90;999.90;;;;;;;;;;5062353;28;20049;-86
2023/10/19 02:22:57;;;;;;;1999.90;999.90;;;;;;;;;;5060082;28;20079;-86
2023/10/19 02:25:24;;;;;;;1999.90;999.90;;;;;;;;;;5061363;28;20111;-86
2023/10/19 02:27:52;;;;;;;1999.90;999.90;;;;;;;;;;5060308;28;20493;-86
2023/10/19 02:30:19;;;;;;;1999.90;999.90;;;;;;;;;;5060492;28;20495;-85
2023/10/19 02:32:47;;;;;;;1999.90;999.90;;;;;;;;;;5057399;28;20072;-86
2023/10/19 02:35:14;;;;;;;1999.90;999.90;;;;;;;;;;5060096;28;20086;-85
2023/10/19 02:37:40;;;;;;;1999.90;999.90;;;;;;;;;;5060429;28;20155;-86
2023/10/19 02:40:12;;;;;;;1999.90;999.90;;;;;;;;;;5057825;28;20053;-85
2023/10/19 02:42:39;;;;;;;1999.90;999.90;;;;;;;;;;5061591;28;20381;-86
2023/10/19 02:45:07;;;;;;;1999.90;999.90;;;;;;;;;;5063737;28;20228;-86
2023/10/19 02:47:35;;;;;;;1999.90;999.90;;;;;;;;;;5054198;28;20045;-86
2023/10/19 02:50:01;;;;;;;1999.90;999.90;;;;;;;;;;5057657;28;20083;-85
2023/10/19 02:52:28;;;;;;;1999.90;999.90;;;;;;;;;;5060250;28;20128;-86
2023/10/19 02:54:56;;;;;;;1999.90;999.90;;;;;;;;;;5053730;28;20048;-85
2023/10/19 02:57:23;;;;;;;1999.90;999.90;;;;;;;;;;5061970;28;20053;-85
2023/10/19 02:59:50;;;;;;;1999.90;999.90;;;;;;;;;;5059847;28;20142;-86
2023/10/19 03:02:17;;;;;;;1999.90;999.90;;;;;;;;;;5058512;28;20076;-86
2023/10/19 03:04:45;;;;;;;1999.90;999.90;;;;;;;;;;5060609;28;20060;-85
2023/10/19 03:07:12;;;;;;;1999.90;999.90;;;;;;;;;;5059773;28;20044;-85
2023/10/19 03:09:39;;;;;;;1999.90;999.90;;;;;;;;;;5060066;28;20068;-85
2023/10/19 03:12:10;;;;;;;1999.90;999.90;;;;;;;;;;5053356;28;20044;-85
2023/10/19 03:14:37;;;;;;;1999.90;999.90;;;;;;;;;;5060905;28;20064;-86
2023/10/19 03:17:04;;;;;;;1999.90;999.90;;;;;;;;;;5056536;28;20568;-85
2023/10/19 03:19:30;;;;;;;1999.90;999.90;;;;;;;;;;5058402;28;20053;-86
2023/10/19 03:22:00;;;;;;;1999.90;999.90;;;;;;;;;;5058438;28;20048;-86
2023/10/19 03:24:36;;;;;;;1999.90;999.90;;;;;;;;;;5059379;28;20554;-86
2023/10/19 03:27:08;;;;;;;1999.90;999.90;;;;;;;;;;5056380;28;20052;-85
2023/10/19 03:29:38;;;;;;;1999.90;999.90;;;;;;;;;;5059625;28;20053;-85
2023/10/19 03:32:05;;;;;;;1999.90;999.90;;;;;;;;;;5054023;28;20051;-84
2023/10/19 03:34:32;;;;;;;1999.90;999.90;;;;;;;;;;5058516;28;20056;-86
2023/10/19 03:37:05;;;;;;;1999.90;999.90;;;;;;;;;;5058921;28;20509;-85
2023/10/19 03:39:34;;;;;;;1999.90;999.90;;;;;;;;;;5059830;28;20055;-86
2023/10/19 03:42:00;;;;;;;1999.90;999.90;;;;;;;;;;5022129;28;20069;-85
2023/10/19 03:44:35;;;;;;;1999.90;999.90;;;;;;;;;;5020012;28;20069;-85
2023/10/19 03:47:04;;;;;;;1999.90;999.90;;;;;;;;;;5019116;28;20494;-85
2023/10/19 03:49:36;;;;;;;1999.90;999.90;;;;;;;;;;5022297;28;20049;-85
2023/10/19 03:52:19;;;;;;;1999.90;999.90;;;;;;;;;;5018949;28;20457;-85
2023/10/19 03:54:47;;;;;;;1999.90;999.90;;;;;;;;;;5020842;28;20042;-85
2023/10/19 03:57:19;;;;;;;1999.90;999.90;;;;;;;;;;5021642;28;20470;-85
2023/10/19 03:59:46;;;;;;;1999.90;999.90;;;;;;;;;;5021763;28;20048;-86
2023/10/19 04:02:16;;;;;;;1999.90;999.90;;;;;;;;;;5018199;28;20053;-85
2023/10/19 04:04:44;;;;;;;1999.90;999.90;;;;;;;;;;5021380;28;20192;-85
2023/10/19 04:07:18;;;;;;;1999.90;999.90;;;;;;;;;;5021190;28;20045;-85
2023/10/19 04:09:59;;;;;;;1999.90;999.90;;;;;;;;;;5021337;28;20099;-86
2023/10/19 04:12:28;;;;;;;1999.90;999.90;;;;;;;;;;5025297;28;20037;-85
2023/10/19 04:14:55;;;;;;;1999.90;999.90;;;;;;;;;;5027088;28;20099;-85
2023/10/19 04:17:23;;;;;;;1999.90;999.90;;;;;;;;;;5026767;28;20053;-86
2023/10/19 04:19:51;;;;;;;1999.90;999.90;;;;;;;;;;5025610;28;20056;-85
2023/10/19 04:22:23;;;;;;;1999.90;999.90;;;;;;;;;;5023547;28;20060;-86
2023/10/19 04:24:49;;;;;;;1999.90;999.90;;;;;;;;;;5022451;28;20042;-86
2023/10/19 04:27:16;;;;;;;1999.90;999.90;;;;;;;;;;5017038;28;20049;-86
2023/10/19 04:29:43;;;;;;;1999.90;999.90;;;;;;;;;;5022996;28;20081;-86
2023/10/19 04:32:13;;;;;;;1999.90;999.90;;;;;;;;;;5018754;28;20038;-86
2023/10/19 04:34:40;;;;;;;1999.90;999.90;;;;;;;;;;5018653;28;20482;-86
2023/10/19 04:37:06;;;;;;;1999.90;999.90;;;;;;;;;;5022695;28;20541;-86
2023/10/19 04:39:36;;;;;;;1999.90;999.90;;;;;;;;;;5019282;28;20041;-86
2023/10/19 04:42:02;;;;;;;1999.90;999.90;;;;;;;;;;5019832;28;20057;-86
2023/10/19 04:44:30;;;;;;;1999.90;999.90;;;;;;;;;;5018561;28;20464;-86
2023/10/19 04:46:57;;;;;;;1999.90;999.90;;;;;;;;;;5020155;28;20056;-86
2023/10/19 04:49:23;;;;;;;1999.90;999.90;;;;;;;;;;5021413;28;20051;-86
2023/10/19 04:51:50;;;;;;;1999.90;999.90;;;;;;;;;;5018713;28;20053;-86
2023/10/19 04:54:17;;;;;;;1999.90;999.90;;;;;;;;;;5022989;28;20422;-85
2023/10/19 04:56:45;;;;;;;1999.90;999.90;;;;;;;;;;5021450;28;20046;-86
2023/10/19 04:59:11;;;;;;;1999.90;999.90;;;;;;;;;;5022311;28;20052;-87
2023/10/19 05:01:40;;;;;;;1999.90;999.90;;;;;;;;;;5020916;28;20121;-88
2023/10/19 05:04:06;;;;;;;1999.90;999.90;;;;;;;;;;5022354;28;20045;-85
2023/10/19 05:06:33;;;;;;;1999.90;999.90;;;;;;;;;;5022990;28;20056;-85
2023/10/19 05:09:01;;;;;;;1999.90;999.90;;;;;;;;;;5021678;28;20073;-86
2023/10/19 05:11:28;;;;;;;1999.90;999.90;;;;;;;;;;5019785;28;20526;-86
2023/10/19 05:13:56;;;;;;;1999.90;999.90;;;;;;;;;;5019186;28;20204;-85
2023/10/19 05:16:22;;;;;;;1999.90;999.90;;;;;;;;;;5022492;28;20045;-86
2023/10/19 05:18:49;;;;;;;1999.90;999.90;;;;;;;;;;5020552;28;20052;-87
2023/10/19 05:21:16;;;;;;;1999.90;999.90;;;;;;;;;;5023450;28;20323;-86
2023/10/19 05:23:42;;;;;;;1999.90;999.90;;;;;;;;;;5023696;28;20499;-86
2023/10/19 05:26:09;;;;;;;1999.90;999.90;;;;;;;;;;5018481;28;20137;-87
2023/10/19 05:28:35;;;;;;;1999.90;999.90;;;;;;;;;;5020952;28;20041;-87
2023/10/19 05:31:04;;;;;;;1999.90;999.90;;;;;;;;;;5020825;28;20482;-87
2023/10/19 05:33:30;;;;;;;1999.90;999.90;;;;;;;;;;5022191;28;20445;-86
2023/10/19 05:35:57;;;;;;;1999.90;999.90;;;;;;;;;;5020075;28;20050;-87
2023/10/19 05:38:24;;;;;;;1999.90;999.90;;;;;;;;;;5015506;28;20048;-87
2023/10/19 05:40:52;;;;;;;1999.90;999.90;;;;;;;;;;5040210;28;20041;-87
2023/10/19 05:43:19;;;;;;;1999.90;999.90;;;;;;;;;;5054002;28;20140;-87
2023/10/19 05:45:49;;;;;;;1999.90;999.90;;;;;;;;;;5060051;28;20536;-86
2023/10/19 05:48:18;;;;;;;1999.90;999.90;;;;;;;;;;5055792;28;20490;-87
2023/10/19 05:50:44;;;;;;;1999.90;999.90;;;;;;;;;;5056068;28;20422;-86
2023/10/19 05:53:11;;;;;;;1999.90;999.90;;;;;;;;;;5058695;28;20050;-87
2023/10/19 05:55:39;;;;;;;1999.90;999.90;;;;;;;;;;5062803;28;20055;-86
2023/10/19 05:58:07;;;;;;;1999.90;999.90;;;;;;;;;;5070815;28;20170;-86
2023/10/19 06:00:34;;;;;;;1999.90;999.90;;;;;;;;;;5063024;28;20040;-87
2023/10/19 06:03:02;;;;;;;1999.90;999.90;;;;;;;;;;5054407;28;20052;-86
2023/10/19 06:05:30;;;;;;;1999.90;999.90;;;;;;;;;;5054819;28;20052;-87
2023/10/19 06:07:59;;;;;;;1999.90;999.90;;;;;;;;;;5054970;28;20052;-87
2023/10/19 06:10:26;;;;;;;1999.90;999.90;;;;;;;;;;5052570;28;20081;-87
2023/10/19 06:12:53;;;;;;;1999.90;999.90;;;;;;;;;;5058785;28;20095;-86
2023/10/19 06:15:22;;;;;;;1999.90;999.90;;;;;;;;;;5050951;28;20045;-87
2023/10/19 06:17:49;;;;;;;1999.90;999.90;;;;;;;;;;5054639;28;20053;-82
2023/10/19 06:20:26;;;;;;;1999.90;999.90;;;;;;;;;;5056648;28;20128;-82
2023/10/19 06:22:55;;;;;;;1999.90;999.90;;;;;;;;;;5059541;28;20405;-83
2023/10/19 06:25:23;;;;;;;1999.90;999.90;;;;;;;;;;5060948;28;20056;-82
2023/10/19 06:27:50;;;;;;;1999.90;999.90;;;;;;;;;;5059829;28;20041;-82
2023/10/19 06:30:18;;;;;;;1999.90;999.90;;;;;;;;;;5057503;28;20048;-83
2023/10/19 06:32:48;;;;;;;1999.90;999.90;;;;;;;;;;5061745;28;20469;-82
2023/10/19 06:35:16;;;;;;;1999.90;999.90;;;;;;;;;;5050191;28;20091;-82
2023/10/19 06:37:42;;;;;;;1999.90;999.90;;;;;;;;;;5055642;28;20056;-82
2023/10/19 06:40:13;;;;;;;1999.90;999.90;;;;;;;;;;5055241;28;20080;-82
2023/10/19 06:42:39;;;;;;;1999.90;999.90;;;;;;;;;;5061702;28;20220;-82
2023/10/19 06:45:08;;;;;;;1999.90;999.90;;;;;;;;;;5058336;28;20052;-82
2023/10/19 06:47:37;;;;;;;1999.90;999.90;;;;;;;;;;5056692;28;20064;-83
2023/10/19 06:50:07;;;;;;;1999.90;999.90;;;;;;;;;;5059967;28;20056;-83
2023/10/19 06:52:35;;;;;;;1999.90;999.90;;;;;;;;;;5054238;28;20064;-82
2023/10/19 06:55:02;;;;;;;1999.90;999.90;;;;;;;;;;5061241;28;20056;-82
2023/10/19 06:57:30;;;;;;;1999.90;999.90;;;;;;;;;;5064010;28;20045;-82
2023/10/19 06:59:57;;;;;;;1999.90;999.90;;;;;;;;;;5060544;28;20045;-83
2023/10/19 07:02:24;;;;;;;1999.90;999.90;;;;;;;;;;5061057;28;20071;-82
2023/10/19 07:04:50;;;;;;;1999.90;999.90;;;;;;;;;;5059598;28;20510;-82
2023/10/19 07:07:17;;;;;;;1999.90;999.90;;;;;;;;;;5059469;28;20048;-81
2023/10/19 07:09:43;;;;;;;1999.90;999.90;;;;;;;;;;5063820;28;20051;-82
2023/10/19 07:12:10;;;;;;;1999.90;999.90;;;;;;;;;;5065908;28;20060;-82
2023/10/19 07:14:38;;;;;;;1999.90;999.90;;;;;;;;;;5055810;28;20370;-82
2023/10/19 07:17:05;;;;;;;1999.90;999.90;;;;;;;;;;5057277;28;20052;-82
2023/10/19 07:19:32;;;;;;;1999.90;999.90;;;;;;;;;;5059572;28;20132;-82
2023/10/19 07:22:04;;;;;;;1999.90;999.90;;;;;;;;;;5059006;28;20055;-83
2023/10/19 07:24:30;;;;;;;1999.90;999.90;;;;;;;;;;5060175;28;20086;-81
2023/10/19 07:27:04;;;;;;;1999.90;999.90;;;;;;;;;;5062750;28;20045;-81
2023/10/19 07:29:33;;;;;;;1999.90;999.90;;;;;;;;;;5060743;28;20037;-81
2023/10/19 07:32:02;;;;;;;1999.90;999.90;;;;;;;;;;5060996;28;20493;-81
2023/10/19 07:34:29;;;;;;;1999.90;999.90;;;;;;;;;;5060471;28;20041;-82
2023/10/19 07:36:58;;;;;;;1999.90;999.90;;;;;;;;;;5061905;28;20049;-81
2023/10/19 07:39:26;;;;;;;1999.90;999.90;;;;;;;;;;5057430;28;20049;-82
2023/10/19 07:41:53;;;;;;;1999.90;999.90;;;;;;;;;;5057970;28;20054;-82
2023/10/19 07:44:19;;;;;;;1999.90;999.90;;;;;;;;;;5064371;28;20394;-82
2023/10/19 07:46:46;;;;;;;1999.90;999.90;;;;;;;;;;5060649;28;20060;-82
2023/10/19 07:49:14;;;;;;;1999.90;999.90;;;;;;;;;;5060733;28;20045;-82
2023/10/19 07:51:45;;;;;;;1999.90;999.90;;;;;;;;;;5060842;28;20110;-82
2023/10/19 07:54:12;;;;;;;1999.90;999.90;;;;;;;;;;5057054;28;20144;-83
2023/10/19 07:56:39;;;;;;;1999.90;999.90;;;;;;;;;;5058384;28;20055;-83
2023/10/19 07:59:06;;;;;;;1999.90;999.90;;;;;;;;;;5061801;28;20296;-82
2023/10/19 08:01:33;;;;;;;1999.90;999.90;;;;;;;;;;5059834;28;20137;-82
2023/10/19 08:04:00;;;;;;;1999.90;999.90;;;;;;;;;;5059971;28;20143;-83
2023/10/19 08:06:28;;;;;;;1999.90;999.90;;;;;;;;;;5057272;28;20135;-82
2023/10/19 08:08:56;;;;;;;1999.90;999.90;;;;;;;;;;5060377;28;20057;-82
2023/10/19 08:11:22;;;;;;;1999.90;999.90;;;;;;;;;;5066281;28;20048;-82
2023/10/19 08:13:55;;;;;;;1999.90;999.90;;;;;;;;;;5069916;28;20052;-81
2023/10/19 08:16:23;;;;;;;1999.90;999.90;;;;;;;;;;5069886;28;20457;-82
2023/10/19 08:18:49;;;;;;;1999.90;999.90;;;;;;;;;;5070279;28;20055;-82
2023/10/19 08:21:17;;;;;;;1999.90;999.90;;;;;;;;;;5076150;28;20053;-82
2023/10/19 08:23:47;;;;;;;1999.90;999.90;;;;;;;;;;5075730;28;20485;-82
2023/10/19 08:26:14;;;;;;;1999.90;999.90;;;;;;;;;;5065457;28;20049;-81
2023/10/19 08:28:41;;;;;;;1999.90;999.90;;;;;;;;;;5068068;28;20041;-81
2023/10/19 08:31:10;;;;;;;1999.90;999.90;;;;;;;;;;5067380;28;20045;-81
2023/10/19 08:33:38;;;;;;;1999.90;999.90;;;;;;;;;;5066568;28;20064;-82
2023/10/19 08:36:05;;;;;;;1999.90;999.90;;;;;;;;;;5067103;28;20044;-81
2023/10/19 08:38:33;;;;;;;1999.90;999.90;;;;;;;;;;5065583;28;20051;-82
2023/10/19 08:41:01;;;;;;;1999.90;999.90;;;;;;;;;;5063950;28;20095;-81
2023/10/19 08:43:28;;;;;;;1999.90;999.90;;;;;;;;;;5070721;28;20450;-82
2023/10/19 08:45:56;;;;;;;1999.90;999.90;;;;;;;;;;5060760;28;20048;-82
2023/10/19 08:48:23;;;;;;;1999.90;999.90;;;;;;;;;;5072815;28;20048;-82
2023/10/19 08:50:50;;;;;;;1999.90;999.90;;;;;;;;;;5068725;28;20056;-81
2023/10/19 08:53:19;;;;;;;1999.90;999.90;;;;;;;;;;5065763;28;20044;-81
2023/10/19 08:55:48;;;;;;;1999.90;999.90;;;;;;;;;;5074681;28;20048;-81
2023/10/19 08:58:16;;;;;;;1999.90;999.90;;;;;;;;;;5072996;28;20140;-82
2023/10/19 09:00:46;;;;;;;1999.90;999.90;;;;;;;;;;5064569;28;20056;-81
2023/10/19 09:03:14;;;;;;;1999.90;999.90;;;;;;;;;;5071049;28;20044;-81
2023/10/19 09:05:41;;;;;;;1999.90;999.90;;;;;;;;;;5067249;28;20071;-81
2023/10/19 09:08:09;;;;;;;1999.90;999.90;;;;;;;;;;5067789;28;20378;-82
2023/10/19 09:10:36;;;;;;;1999.90;999.90;;;;;;;;;;5061146;28;20052;-82
2023/10/19 09:13:04;;;;;;;1999.90;999.90;;;;;;;;;;5063564;28;20132;-81
2023/10/19 09:15:33;;;;;;;1999.90;999.90;;;;;;;;;;5066799;28;20045;-81
2023/10/19 09:18:00;;;;;;;1999.90;999.90;;;;;;;;;;5059461;28;20047;-81
2023/10/19 09:20:28;;;;;;;1999.90;999.90;;;;;;;;;;5064957;28;20127;-82
2023/10/19 09:22:56;;;;;;;1999.90;999.90;;;;;;;;;;5069900;28;20048;-82
2023/10/19 09:25:23;;;;;;;1999.90;999.90;;;;;;;;;;5062447;28;20037;-82
2023/10/19 09:27:51;;;;;;;1999.90;999.90;;;;;;;;;;5064068;28;20413;-80
2023/10/19 09:30:19;;;;;;;1999.90;999.90;;;;;;;;;;5058207;28;20153;-83
2023/10/19 09:32:48;;;;;;;1999.90;999.90;;;;;;;;;;5056833;28;20448;-82
2023/10/19 09:35:16;;;;;;;1999.90;999.90;;;;;;;;;;5060251;28;20094;-82
2023/10/19 09:37:42;;;;;;;1999.90;999.90;;;;;;;;;;5060357;28;20048;-83
2023/10/19 09:40:12;;;;;;;1999.90;999.90;;;;;;;;;;5062004;28;20564;-81
2023/10/19 09:42:45;;;;;;;1999.90;999.90;;;;;;;;;;5059556;28;20098;-82
2023/10/19 09:45:12;;;;;;;1999.90;999.90;;;;;;;;;;5057807;28;20044;-83
2023/10/19 09:47:40;;;;;;;1999.90;999.90;;;;;;;;;;5056916;28;20044;-81
2023/10/19 09:50:11;;;;;;;1999.90;999.90;;;;;;;;;;5059940;28;20052;-81
2023/10/19 09:52:38;;;;;;;1999.90;999.90;;;;;;;;;;5055105;28;20049;-81
2023/10/19 09:55:10;;;;;;;1999.90;999.90;;;;;;;;;;5060154;28;20147;-82
2023/10/19 09:57:43;;;;;;;1999.90;999.90;;;;;;;;;;5057573;28;20496;-84
2023/10/19 10:00:12;;;;;;;1999.90;999.90;;;;;;;;;;5057717;28;20049;-81
2023/10/19 10:02:41;;;;;;;1999.90;999.90;;;;;;;;;;5058544;28;20321;-82
2023/10/19 10:05:40;;;;;;;1999.90;999.90;;;;;;;;;;5058430;28;20412;-81
2023/10/19 10:08:33;;;;;;;1999.90;999.90;;;;;;;;;;5055287;28;20053;-82
2023/10/19 10:11:15;;;;;;;1999.90;999.90;;;;;;;;;;5050450;28;20048;-81
2023/10/19 10:13:42;;;;;;;1999.90;999.90;;;;;;;;;;5056840;28;20102;-83
2023/10/19 10:16:08;;;;;;;1999.90;999.90;;;;;;;;;;5056320;28;20049;-82
2023/10/19 10:18:36;;;;;;;1999.90;999.90;;;;;;;;;;5060741;28;20055;-82
2023/10/19 10:21:12;;;;;;;1999.90;999.90;;;;;;;;;;5060284;28;20055;-82
2023/10/19 10:23:44;;;;;;;1999.90;999.90;;;;;;;;;;5058767;28;20511;-84
2023/10/19 10:26:12;;;;;;;1999.90;999.90;;;;;;;;;;5061937;28;20048;-81
2023/10/19 10:28:39;;;;;;;1999.90;999.90;;;;;;;;;;5062294;28;20052;-82
2023/10/19 10:31:16;;;;;;;1999.90;999.90;;;;;;;;;;5059053;28;20056;-81
2023/10/19 10:33:46;;;;;;;1999.90;999.90;;;;;;;;;;5057791;28;20460;-83
2023/10/19 10:36:13;;;;;;;1999.90;999.90;;;;;;;;;;5062477;28;20448;-81
2023/10/19 10:38:40;;;;;;;1999.90;999.90;;;;;;;;;;5058555;28;20051;-83
2023/10/19 10:41:10;;;;;;;1999.90;999.90;;;;;;;;;;5061363;28;20106;-81
2023/10/19 10:43:52;;;;;;;1999.90;999.90;;;;;;;;;;5060562;28;20048;-81
2023/10/19 10:46:19;;;;;;;1999.90;999.90;;;;;;;;;;5063007;28;20059;-81
2023/10/19 10:48:48;;;;;;;1999.90;999.90;;;;;;;;;;5062384;28;20053;-81
2023/10/19 10:51:19;;;;;;;1999.90;999.90;;;;;;;;;;5063335;28;20048;-82
2023/10/19 10:53:48;;;;;;;1999.90;999.90;;;;;;;;;;5064259;28;20060;-81
2023/10/19 10:56:16;;;;;;;1999.90;999.90;;;;;;;;;;5062595;28;20097;-81
2023/10/19 10:58:42;;;;;;;1999.90;999.90;;;;;;;;;;5060627;28;20291;-82
2023/10/19 11:01:10;;;;;;;1999.90;999.90;;;;;;;;;;5063325;28;20131;-82
2023/10/19 11:03:36;;;;;;;1999.90;999.90;;;;;;;;;;5057713;28;20050;-82
2023/10/19 11:06:07;;;;;;;1999.90;999.90;;;;;;;;;;5064729;28;20088;-81
2023/10/19 11:08:35;;;;;;;1999.90;999.90;;;;;;;;;;5062804;28;20048;-82
2023/10/19 11:11:06;;;;;;;1999.90;999.90;;;;;;;;;;5060220;28;20490;-83
2023/10/19 11:13:35;;;;;;;1999.90;999.90;;;;;;;;;;5061122;28;20459;-82
2023/10/19 11:16:05;;;;;;;1999.90;999.90;;;;;;;;;;5063140;28;20437;-81
2023/10/19 11:18:33;;;;;;;1999.90;999.90;;;;;;;;;;5064597;28;20052;-81
2023/10/19 11:21:04;;;;;;;1999.90;999.90;;;;;;;;;;5064025;28;20060;-82
2023/10/19 11:23:42;;;;;;;1999.90;999.90;;;;;;;;;;5057742;28;20049;-81
2023/10/19 11:26:09;;;;;;;1999.90;999.90;;;;;;;;;;5064584;28;20052;-81
2023/10/19 11:28:42;;;;;;;1999.90;999.90;;;;;;;;;;5060191;28;20321;-81
2023/10/19 11:31:16;;;;;;;1999.90;999.90;;;;;;;;;;5055113;28;20066;-82
2023/10/19 11:33:44;;;;;;;1999.90;999.90;;;;;;;;;;5059432;28;20537;-81
2023/10/19 11:36:13;;;;;;;1999.90;999.90;;;;;;;;;;5056841;28;20424;-82
2023/10/19 11:38:44;;;;;;;1999.90;999.90;;;;;;;;;;5062168;28;20049;-82
2023/10/19 11:41:13;;;;;;;1999.90;999.90;;;;;;;;;;5057232;28;20570;-81
2023/10/19 11:43:42;;;;;;;1999.90;999.90;;;;;;;;;;5059758;28;20045;-81
2023/10/19 11:46:09;;;;;;;1999.90;999.90;;;;;;;;;;5058920;28;20073;-81
2023/10/19 11:48:36;;;;;;;1999.90;999.90;;;;;;;;;;5062961;28;20052;-80
2023/10/19 11:51:04;;;;;;;1999.90;999.90;;;;;;;;;;5062278;28;20056;-81
2023/10/19 11:53:36;;;;;;;1999.90;999.90;;;;;;;;;;5060874;28;20673;-81
2023/10/19 11:56:04;;;;;;;1999.90;999.90;;;;;;;;;;5067948;28;20048;-81
2023/10/19 11:58:32;;;;;;;1999.90;999.90;;;;;;;;;;5074096;28;20078;-81
2023/10/19 12:01:00;;;;;;;1999.90;999.90;;;;;;;;;;5067680;28;20045;-82
2023/10/19 12:03:28;;;;;;;1999.90;999.90;;;;;;;;;;5066964;28;20052;-81
2023/10/19 12:05:55;;;;;;;1999.90;999.90;;;;;;;;;;5067464;28;20098;-83
2023/10/19 12:08:22;;;;;;;1999.90;999.90;;;;;;;;;;5062954;28;20428;-81
2023/10/19 12:10:48;;;;;;;1999.90;999.90;;;;;;;;;;5060655;28;20045;-82
2023/10/19 12:13:18;;;;;;;1999.90;999.90;;;;;;;;;;5071667;28;20045;-80
2023/10/19 12:15:51;;;;;;;1999.90;999.90;;;;;;;;;;5070135;28;20047;-81
2023/10/19 12:18:20;;;;;;;1999.90;999.90;;;;;;;;;;5076684;28;20056;-82
2023/10/19 12:20:47;;;;;;;1999.90;999.90;;;;;;;;;;5075933;28;20428;-81
2023/10/19 12:23:13;;;;;;;1999.90;999.90;;;;;;;;;;5069277;28;20048;-81
2023/10/19 12:25:42;;;;;;;1999.90;999.90;;;;;;;;;;5073791;28;20051;-82
2023/10/19 12:28:13;;;;;;;1999.90;999.90;;;;;;;;;;5064105;28;20053;-82
2023/10/19 12:30:41;;;;;;;1999.90;999.90;;;;;;;;;;5073049;28;20041;-82
2023/10/19 12:33:11;;;;;;;1999.90;999.90;;;;;;;;;;5072009;28;20528;-82
2023/10/19 12:35:45;;;;;;;1999.90;999.90;;;;;;;;;;5066460;28;20065;-82
2023/10/19 12:38:15;;;;;;;1999.90;999.90;;;;;;;;;;5064502;28;20059;-80
2023/10/19 12:40:44;;;;;;;1999.90;999.90;;;;;;;;;;5066196;28;20092;-84
2023/10/19 12:43:12;;;;;;;1999.90;999.90;;;;;;;;;;5070261;28;20051;-82
2023/10/19 12:45:39;;;;;;;1999.90;999.90;;;;;;;;;;5066117;28;20514;-81
2023/10/19 12:48:06;;;;;;;1999.90;999.90;;;;;;;;;;5063315;28;20045;-82
2023/10/19 12:50:34;;;;;;;1999.90;999.90;;;;;;;;;;5069488;28;20052;-81
2023/10/19 12:53:02;;;;;;;1999.90;999.90;;;;;;;;;;5062583;28;20048;-82
2023/10/19 12:55:30;;;;;;;1999.90;999.90;;;;;;;;;;5067081;28;20052;-82
2023/10/19 12:57:57;;;;;;;1999.90;999.90;;;;;;;;;;5067604;28;20122;-81
2023/10/19 13:00:29;;;;;;;1999.90;999.90;;;;;;;;;;5062543;28;20087;-82
2023/10/19 13:02:59;;;;;;;1999.90;999.90;;;;;;;;;;5064912;28;20048;-82
2023/10/19 13:05:27;;;;;;;1999.90;999.90;;;;;;;;;;5065098;28;20051;-82
2023/10/19 13:07:57;;;;;;;1999.90;999.90;;;;;;;;;;5063629;28;20067;-81
2023/10/19 13:10:32;;;;;;;1999.90;999.90;;;;;;;;;;5061736;28;20080;-82
2023/10/19 13:13:03;;;;;;;1999.90;999.90;;;;;;;;;;5061743;28;20171;-82
2023/10/19 13:15:30;;;;;;;1999.90;999.90;;;;;;;;;;5067607;28;20040;-82
2023/10/19 13:17:58;;;;;;;1999.90;999.90;;;;;;;;;;5067917;28;20061;-82
2023/10/19 13:20:25;;;;;;;1999.90;999.90;;;;;;;;;;5057469;28;20121;-81
2023/10/19 13:22:52;;;;;;;1999.90;999.90;;;;;;;;;;5061516;28;20051;-83
2023/10/19 13:25:28;;;;;;;1999.90;999.90;;;;;;;;;;5065050;28;20048;-82
2023/10/19 13:27:56;;;;;;;1999.90;999.90;;;;;;;;;;5064937;28;20078;-82
2023/10/19 13:30:23;;;;;;;1999.90;999.90;;;;;;;;;;5065527;28;20049;-82
2023/10/19 13:32:49;;;;;;;1999.90;999.90;;;;;;;;;;5059431;28;20052;-82
2023/10/19 13:35:16;;;;;;;1999.90;999.90;;;;;;;;;;5057853;28;20492;-83
2023/10/19 13:37:43;;;;;;;1999.90;999.90;;;;;;;;;;5059039;28;20048;-83
2023/10/19 13:40:11;;;;;;;1999.90;999.90;;;;;;;;;;5064567;28;20048;-82
2023/10/19 13:42:38;;;;;;;1999.90;999.90;;;;;;;;;;5061473;28;20049;-83
2023/10/19 13:45:12;;;;;;;1999.90;999.90;;;;;;;;;;5060802;28;20048;-82
2023/10/19 13:47:38;;;;;;;1999.90;999.90;;;;;;;;;;5053852;28;20119;-82
2023/10/19 13:50:07;;;;;;;1999.90;999.90;;;;;;;;;;5055797;28;20450;-82